createdAt,value
2022-10-18T00:00:22.505Z,100390.47
2022-10-18T00:02:49.801Z,100390.84
2022-10-18T00:05:18.614Z,100386.03
2022-10-18T00:07:45.856Z,100380.38
2022-10-18T00:10:13.261Z,100380.66
2022-10-18T00:12:40.464Z,100389.50
2022-10-18T00:15:08.997Z,100387.31
2022-10-18T00:17:36.630Z,100383.81
2022-10-18T00:20:05.340Z,100383.25
2022-10-18T00:22:34.249Z,100383.50
2022-10-18T00:25:01.666Z,100381.22
2022-10-18T00:27:29.746Z,100378.91
2022-10-18T00:29:57.337Z,100372.22
2022-10-18T00:32:25.017Z,100368.72
2022-10-18T00:34:52.340Z,100369.09
2022-10-18T00:37:19.551Z,100368.31
2022-10-18T00:39:48.100Z,100371.13
2022-10-18T00:42:17.216Z,100369.78
2022-10-18T00:45:06.688Z,100370.53
2022-10-18T00:47:35.889Z,100368.22
2022-10-18T00:50:05.581Z,100371.16
2022-10-18T00:52:37.135Z,100368.97
2022-10-18T00:55:07.197Z,100365.53
2022-10-18T00:57:34.965Z,100349.56
2022-10-18T01:00:02.549Z,100348.63
2022-10-18T01:02:30.146Z,100350.50
2022-10-18T01:04:57.531Z,100355.72
2022-10-18T01:07:36.008Z,100359.22
2022-10-18T01:10:16.633Z,100351.69
2022-10-18T01:12:51.607Z,100351.00
2022-10-18T01:15:24.131Z,100341.22
2022-10-18T01:17:59.826Z,100351.91
2022-10-18T01:20:49.261Z,100348.13
2022-10-18T01:23:22.853Z,100347.56
2022-10-18T01:25:57.164Z,100347.81
2022-10-18T01:28:45.515Z,100349.00
2022-10-18T01:31:18.654Z,100331.44
2022-10-18T01:33:51.142Z,100333.16
2022-10-18T01:36:25.322Z,100340.38
2022-10-18T01:38:55.407Z,100341.56
2022-10-18T01:41:25.312Z,100345.16
2022-10-18T01:43:57.611Z,100332.69
2022-10-18T01:46:26.687Z,100335.34
2022-10-18T01:48:55.503Z,100327.63
2022-10-18T01:51:25.077Z,100322.41
2022-10-18T01:53:52.434Z,100314.78
2022-10-18T01:56:34.105Z,100324.94
2022-10-18T01:59:22.666Z,100329.47
2022-10-18T02:02:02.621Z,100324.50
2022-10-18T02:04:39.766Z,100332.13
2022-10-18T02:07:14.875Z,100327.84
2022-10-18T02:09:50.621Z,100329.94
2022-10-18T02:12:20.247Z,100322.44
2022-10-18T02:14:49.685Z,100324.31
2022-10-18T02:17:21.070Z,100327.81
2022-10-18T02:19:52.949Z,100327.81
2022-10-18T02:22:23.094Z,100325.38
2022-10-18T02:24:54.901Z,100322.16
2022-10-18T02:27:22.629Z,100325.50
2022-10-18T02:29:50.081Z,100323.19
2022-10-18T02:32:24.963Z,100329.22
2022-10-18T02:34:59.282Z,100315.69
2022-10-18T02:37:32.723Z,100307.50
2022-10-18T02:40:00.101Z,100310.28
2022-10-18T02:42:34.595Z,100309.16
2022-10-18T02:45:02.091Z,100321.09
2022-10-18T02:47:30.991Z,100317.06
2022-10-18T02:49:58.429Z,100306.19
2022-10-18T02:52:25.846Z,100318.59
2022-10-18T02:54:53.013Z,100316.41
2022-10-18T02:57:20.309Z,100314.13
2022-10-18T02:59:47.465Z,100318.50
2022-10-18T03:02:14.701Z,100324.50
2022-10-18T03:04:43.330Z,100318.88
2022-10-18T03:07:10.466Z,100318.88
2022-10-18T03:09:37.670Z,100320.97
2022-10-18T03:12:05.183Z,100318.53
2022-10-18T03:14:32.635Z,100313.47
2022-10-18T03:16:59.818Z,100318.53
2022-10-18T03:19:26.945Z,100313.34
2022-10-18T03:21:55.759Z,100321.91
2022-10-18T03:24:23.305Z,100318.53
2022-10-18T03:26:50.662Z,100315.88
2022-10-18T03:29:17.798Z,100314.28
2022-10-18T03:31:45.181Z,100317.59
2022-10-18T03:34:12.446Z,100321.31
2022-10-18T03:36:41.400Z,100318.09
2022-10-18T03:39:11.539Z,100309.25
2022-10-18T03:41:38.803Z,100316.28
2022-10-18T03:44:05.947Z,100314.56
2022-10-18T03:46:33.151Z,100313.72
2022-10-18T03:49:00.429Z,100310.66
2022-10-18T03:51:27.619Z,100300.72
2022-10-18T03:53:54.947Z,100309.13
2022-10-18T03:56:23.975Z,100309.25
2022-10-18T03:58:51.308Z,100306.81
2022-10-18T04:01:18.549Z,100308.22
2022-10-18T04:03:45.946Z,100304.09
2022-10-18T04:06:13.479Z,100308.50
2022-10-18T04:08:41.187Z,100314.69
2022-10-18T04:11:10.064Z,100299.75
2022-10-18T04:13:38.849Z,100309.41
2022-10-18T04:16:06.286Z,100309.75
2022-10-18T04:18:33.517Z,100312.41
2022-10-18T04:21:00.752Z,100310.81
2022-10-18T04:23:28.171Z,100307.34
2022-10-18T04:25:55.327Z,100310.81
2022-10-18T04:28:25.636Z,100298.13
2022-10-18T04:30:54.753Z,100299.06
2022-10-18T04:33:22.016Z,100300.06
2022-10-18T04:35:51.954Z,100303.53
2022-10-18T04:38:19.348Z,100301.94
2022-10-18T04:40:46.859Z,100300.34
2022-10-18T04:43:14.459Z,100296.75
2022-10-18T04:45:41.965Z,100304.25
2022-10-18T04:48:10.830Z,100305.03
2022-10-18T04:50:38.071Z,100311.88
2022-10-18T04:53:15.090Z,100309.31
2022-10-18T04:55:44.369Z,100308.16
2022-10-18T04:58:12.034Z,100309.19
2022-10-18T05:00:40.084Z,100307.63
2022-10-18T05:03:08.083Z,100308.69
2022-10-18T05:05:49.983Z,100301.88
2022-10-18T05:08:24.160Z,100305.69
2022-10-18T05:10:51.260Z,100312.94
2022-10-18T05:13:18.515Z,100306.09
2022-10-18T05:15:47.594Z,100310.19
2022-10-18T05:18:14.881Z,100308.41
2022-10-18T05:20:43.725Z,100311.19
2022-10-18T05:23:11.005Z,100305.72
2022-10-18T05:25:39.235Z,100308.81
2022-10-18T05:28:15.714Z,100302.75
2022-10-18T05:30:48.695Z,100310.94
2022-10-18T05:33:15.880Z,100313.91
2022-10-18T05:35:44.387Z,100304.03
2022-10-18T05:38:11.850Z,100303.53
2022-10-18T05:40:39.718Z,100305.91
2022-10-18T05:43:07.022Z,100311.81
2022-10-18T05:45:34.175Z,100297.84
2022-10-18T05:48:01.583Z,100295.81
2022-10-18T05:50:28.854Z,100312.25
2022-10-18T05:53:06.892Z,100310.03
2022-10-18T05:55:39.891Z,100301.38
2022-10-18T05:58:07.335Z,100305.06
2022-10-18T06:00:34.813Z,100302.22
2022-10-18T06:03:02.255Z,100305.97
2022-10-18T06:05:29.588Z,100299.41
2022-10-18T06:07:58.233Z,100300.00
2022-10-18T06:10:25.424Z,100307.03
2022-10-18T06:12:52.965Z,100303.91
2022-10-18T06:15:20.186Z,100303.22
2022-10-18T06:17:47.483Z,100302.34
2022-10-18T06:20:15.104Z,100299.03
2022-10-18T06:22:42.574Z,100305.19
2022-10-18T06:25:11.451Z,100303.03
2022-10-18T06:27:38.784Z,100307.03
2022-10-18T06:30:07.596Z,100296.19
2022-10-18T06:32:34.836Z,100302.81
2022-10-18T06:35:02.229Z,100294.78
2022-10-18T06:37:31.044Z,100293.53
2022-10-18T06:39:58.658Z,100298.31
2022-10-18T06:42:27.262Z,100297.09
2022-10-18T06:44:55.147Z,100292.22
2022-10-18T06:47:22.556Z,100289.03
2022-10-18T06:49:49.879Z,100291.41
2022-10-18T06:52:17.633Z,100287.56
2022-10-18T06:54:45.531Z,100289.75
2022-10-18T06:57:12.794Z,100286.38
2022-10-18T06:59:41.458Z,100298.81
2022-10-18T07:02:09.779Z,100285.97
2022-10-18T07:04:37.179Z,100283.41
2022-10-18T07:07:04.466Z,100285.88
2022-10-18T07:09:31.934Z,100282.50
2022-10-18T07:11:59.355Z,100282.31
2022-10-18T07:14:29.038Z,100275.53
2022-10-18T07:17:00.550Z,100283.47
2022-10-18T07:19:28.007Z,100275.03
2022-10-18T07:21:55.359Z,100277.22
2022-10-18T07:24:22.590Z,100275.34
2022-10-18T07:26:49.898Z,100270.44
2022-10-18T07:29:17.142Z,100258.81
2022-10-18T07:31:44.674Z,100261.31
2022-10-18T07:34:13.944Z,100256.56
2022-10-18T07:36:41.844Z,100264.16
2022-10-18T07:39:09.473Z,100257.63
2022-10-18T07:41:37.196Z,100252.34
2022-10-18T07:44:04.944Z,100252.81
2022-10-18T07:46:32.656Z,100247.72
2022-10-18T07:49:00.067Z,100244.28
2022-10-18T07:51:31.019Z,100236.44
2022-10-18T07:53:58.511Z,100243.28
2022-10-18T07:56:25.720Z,100237.88
2022-10-18T07:58:55.556Z,100228.69
2022-10-18T08:01:24.388Z,100229.00
2022-10-18T08:03:53.981Z,100218.59
2022-10-18T08:06:22.793Z,100230.31
2022-10-18T08:08:52.390Z,100221.81
2022-10-18T08:11:21.910Z,100223.03
2022-10-18T08:13:49.521Z,100224.88
2022-10-18T08:16:19.082Z,100224.16
2022-10-18T08:18:46.616Z,100217.19
2022-10-18T08:21:15.931Z,100221.28
2022-10-18T08:23:43.660Z,100216.50
2022-10-18T08:26:14.922Z,100210.81
2022-10-18T08:28:49.094Z,100205.91
2022-10-18T08:31:26.363Z,100208.91
2022-10-18T08:33:56.153Z,100198.06
2022-10-18T08:36:23.606Z,100206.03
2022-10-18T08:38:50.974Z,100199.50
2022-10-18T08:41:32.854Z,100192.63
2022-10-18T08:44:07.454Z,100185.56
2022-10-18T08:46:36.142Z,100191.72
2022-10-18T08:49:05.813Z,100180.31
2022-10-18T08:51:39.993Z,100174.53
2022-10-18T08:54:12.127Z,100170.84
2022-10-18T08:56:43.183Z,100169.78
2022-10-18T08:59:12.270Z,100165.22
2022-10-18T09:04:30.870Z,100165.28
2022-10-18T09:07:18.107Z,100151.78
2022-10-18T09:09:50.892Z,100147.38
2022-10-18T09:12:34.104Z,100145.06
2022-10-18T09:15:13.477Z,100145.53
2022-10-18T09:17:50.619Z,100141.66
2022-10-18T09:20:23.989Z,100131.94
2022-10-18T09:22:56.339Z,100127.72
2022-10-18T09:25:26.192Z,100122.53
2022-10-18T09:28:00.467Z,100124.72
2022-10-18T09:30:39.769Z,100116.31
2022-10-18T09:33:20.315Z,100107.41
2022-10-18T09:35:52.666Z,100109.75
2022-10-18T09:40:57.457Z,100101.88
2022-10-18T09:43:37.445Z,100093.22
2022-10-18T09:46:06.592Z,100098.22
2022-10-18T09:48:38.395Z,100094.00
2022-10-18T09:51:12.300Z,100094.56
2022-10-18T09:53:45.094Z,100090.09
2022-10-18T09:56:17.874Z,100082.19
2022-10-18T09:58:48.827Z,100084.53
2022-10-18T10:01:19.952Z,100076.41
2022-10-18T10:03:47.717Z,100066.38
2022-10-18T10:06:18.137Z,100061.94
2022-10-18T10:08:54.049Z,100068.53
2022-10-18T10:11:30.797Z,100058.03
2022-10-18T10:14:09.039Z,100055.91
2022-10-18T10:16:50.952Z,100042.81
2022-10-18T10:19:20.901Z,100048.03
2022-10-18T10:21:51.543Z,100042.25
2022-10-18T10:24:25.097Z,100033.59
2022-10-18T10:27:05.004Z,100032.56
2022-10-18T10:32:17.229Z,100023.91
2022-10-18T10:34:45.192Z,100022.31
2022-10-18T10:37:25.203Z,100018.34
2022-10-18T10:40:19.022Z,100017.56
2022-10-18T10:43:13.200Z,100001.97
2022-10-18T10:46:11.242Z,99991.97
2022-10-18T10:48:48.889Z,99993.09
2022-10-18T10:51:18.819Z,99985.28
2022-10-18T10:53:57.857Z,99985.53
2022-10-18T10:56:28.086Z,99976.06
2022-10-18T10:58:58.594Z,99976.34
2022-10-18T11:01:31.033Z,99971.91
2022-10-18T11:04:01.401Z,99957.16
2022-10-18T11:06:41.389Z,99962.16
2022-10-18T11:09:31.483Z,99969.75
2022-10-18T11:12:05.473Z,99967.69
2022-10-18T11:14:39.226Z,99954.81
2022-10-18T11:17:19.957Z,99960.59
2022-10-18T11:20:10.468Z,99946.19
2022-10-18T11:22:43.367Z,99934.88
2022-10-18T11:25:15.383Z,99943.78
2022-10-18T11:27:49.389Z,99930.41
2022-10-18T11:30:32.880Z,99931.97
2022-10-18T11:33:11.242Z,99925.94
2022-10-18T11:35:46.086Z,99916.25
2022-10-18T11:38:21.559Z,99916.25
2022-10-18T11:41:05.363Z,99912.81
2022-10-18T11:44:00.717Z,99903.66
2022-10-18T11:46:45.544Z,99908.09
2022-10-18T11:49:32.269Z,99904.44
2022-10-18T11:52:09.049Z,99903.09
2022-10-18T11:54:59.730Z,99904.19
2022-10-18T11:57:40.963Z,99898.94
2022-10-18T12:00:19.072Z,99890.50
2022-10-18T12:03:04.307Z,99890.50
2022-10-18T12:05:36.040Z,99888.19
2022-10-18T12:08:07.685Z,99870.31
2022-10-18T12:10:53.037Z,99873.22
2022-10-18T12:13:29.552Z,99863.00
2022-10-18T12:15:57.214Z,99857.47
2022-10-18T12:18:26.502Z,99859.31
2022-10-18T12:20:57.073Z,99852.44
2022-10-18T12:23:36.682Z,99853.41
2022-10-18T12:26:06.179Z,99843.97
2022-10-18T12:28:43.073Z,99837.41
2022-10-18T12:31:20.204Z,99843.59
2022-10-18T12:33:52.703Z,99829.66
2022-10-18T12:36:38.735Z,99838.59
2022-10-18T12:39:11.555Z,99832.03
2022-10-18T12:41:39.050Z,99832.06
2022-10-18T12:44:08.141Z,99831.03
2022-10-18T12:46:46.761Z,99821.78
2022-10-18T12:49:17.272Z,99819.19
2022-10-18T12:51:54.369Z,99820.81
2022-10-18T12:54:26.767Z,99820.84
2022-10-18T12:56:54.162Z,99816.84
2022-10-18T12:59:51.214Z,99813.66
2022-10-18T13:02:30.711Z,99810.22
2022-10-18T13:05:00.533Z,99812.34
2022-10-18T13:07:41.079Z,99808.69
2022-10-18T13:10:41.380Z,99819.16
2022-10-18T13:13:40.659Z,99805.56
2022-10-18T13:16:26.898Z,99801.16
2022-10-18T13:18:57.729Z,99795.41
2022-10-18T13:21:39.921Z,99790.59
2022-10-18T13:24:26.078Z,99794.66
2022-10-18T13:27:34.559Z,99791.50
2022-10-18T13:30:29.943Z,99788.34
2022-10-18T13:33:05.187Z,99787.78
2022-10-18T13:35:45.850Z,99771.06
2022-10-18T13:38:32.658Z,99770.72
2022-10-18T13:41:02.573Z,99767.19
2022-10-18T13:44:19.201Z,99765.84
2022-10-18T13:47:15.465Z,99761.44
2022-10-18T13:50:03.540Z,99763.00
2022-10-18T13:52:47.036Z,99758.28
2022-10-18T13:55:33.789Z,99747.72
2022-10-18T13:58:10.314Z,99747.94
2022-10-18T14:00:54.791Z,99745.75
2022-10-18T14:03:57.385Z,99746.66
2022-10-18T14:06:28.617Z,99747.09
2022-10-18T14:09:09.389Z,99743.28
2022-10-18T14:11:50.793Z,99746.50
2022-10-18T14:14:26.546Z,99739.69
2022-10-18T14:17:00.975Z,99739.75
2022-10-18T14:19:32.494Z,99733.69
2022-10-18T14:22:18.110Z,99729.38
2022-10-18T14:24:48.650Z,99724.75
2022-10-18T14:27:21.157Z,99722.59
2022-10-18T14:29:50.918Z,99728.22
2022-10-18T14:32:27.927Z,99717.72
2022-10-18T14:35:27.195Z,99709.72
2022-10-18T14:37:47.841Z,99708.81
2022-10-18T14:40:30.251Z,99705.34
2022-10-18T14:43:01.245Z,99702.44
2022-10-18T14:45:30.187Z,99703.56
2022-10-18T14:48:13.245Z,99696.84
2022-10-18T14:50:40.963Z,99694.19
2022-10-18T14:53:13.669Z,99689.50
2022-10-18T14:55:43.075Z,99686.50
2022-10-18T14:58:15.170Z,99691.06
2022-10-18T15:00:46.343Z,99682.22
2022-10-18T15:03:18.090Z,99680.22
2022-10-18T15:05:57.099Z,99678.56
2022-10-18T15:08:26.622Z,99675.25
2022-10-18T15:10:54.907Z,99678.78
2022-10-18T15:13:23.255Z,99682.00
2022-10-18T15:15:52.151Z,99667.44
2022-10-18T15:18:22.197Z,99668.84
2022-10-18T15:21:07.809Z,99664.25
2022-10-18T15:23:34.958Z,99665.47
2022-10-18T15:26:04.894Z,99660.88
2022-10-18T15:28:36.166Z,99663.03
2022-10-18T15:31:05.702Z,99662.59
2022-10-18T15:33:36.534Z,99667.59
2022-10-18T15:36:11.618Z,99672.78
2022-10-18T15:38:39.129Z,99676.78
2022-10-18T15:41:36.639Z,99677.00
2022-10-18T15:44:11.638Z,99671.81
2022-10-18T15:46:43.046Z,99671.81
2022-10-18T15:49:48.671Z,99666.78
2022-10-18T15:52:39.406Z,99676.38
2022-10-18T15:55:48.024Z,99668.78
2022-10-18T15:58:21.463Z,99672.38
2022-10-18T16:00:50.369Z,99670.78
2022-10-18T16:03:22.181Z,99673.53
2022-10-18T16:05:50.835Z,99676.09
2022-10-18T16:08:23.252Z,99685.06
2022-10-18T16:10:50.881Z,99674.47
2022-10-18T16:13:18.480Z,99677.63
2022-10-18T16:15:46.082Z,99679.59
2022-10-18T16:18:19.922Z,99682.69
2022-10-18T16:20:47.959Z,99673.38
2022-10-18T16:23:20.695Z,99676.28
2022-10-18T16:25:48.593Z,99667.97
2022-10-18T16:28:18.143Z,99674.44
2022-10-18T16:30:51.310Z,99677.72
2022-10-18T16:33:21.610Z,99675.59
2022-10-18T16:35:49.302Z,99679.22
2022-10-18T16:38:32.527Z,99683.06
2022-10-18T16:41:02.573Z,99672.38
2022-10-18T16:43:30.172Z,99676.06
2022-10-18T16:45:57.574Z,99679.53
2022-10-18T16:48:26.921Z,99670.66
2022-10-18T16:50:56.070Z,99679.06
2022-10-18T16:53:25.053Z,99673.75
2022-10-18T16:55:55.234Z,99662.88
2022-10-18T17:00:51.261Z,99670.66
2022-10-18T17:03:18.781Z,99668.66
2022-10-18T17:05:47.976Z,99669.69
2022-10-18T17:08:19.496Z,99660.97
2022-10-18T17:10:48.194Z,99666.94
2022-10-18T17:13:15.967Z,99657.66
2022-10-18T17:15:43.236Z,99656.09
2022-10-18T17:18:12.010Z,99659.28
2022-10-18T17:20:39.578Z,99667.84
2022-10-18T17:23:09.275Z,99663.28
2022-10-18T17:25:46.186Z,99669.44
2022-10-18T17:28:24.994Z,99667.25
2022-10-18T17:30:52.275Z,99659.09
2022-10-18T17:33:19.526Z,99666.88
2022-10-18T17:35:50.007Z,99652.38
2022-10-18T17:38:18.638Z,99651.59
2022-10-18T17:40:45.795Z,99644.06
2022-10-18T17:43:13.992Z,99640.66
2022-10-18T17:45:48.029Z,99640.84
2022-10-18T17:48:17.489Z,99649.38
2022-10-18T17:50:44.670Z,99650.38
2022-10-18T17:53:15.112Z,99651.53
2022-10-18T17:55:43.806Z,99649.97
2022-10-18T17:58:11.037Z,99651.94
2022-10-18T18:00:38.306Z,99649.31
2022-10-18T18:03:05.631Z,99643.75
2022-10-18T18:05:34.357Z,99647.50
2022-10-18T18:08:04.185Z,99636.16
2022-10-18T18:10:32.546Z,99636.31
2022-10-18T18:13:02.910Z,99629.53
2022-10-18T18:15:30.247Z,99622.00
2022-10-18T18:17:58.210Z,99629.66
2022-10-18T18:20:26.128Z,99626.25
2022-10-18T18:22:55.037Z,99629.75
2022-10-18T18:25:22.231Z,99621.81
2022-10-18T18:27:49.582Z,99623.50
2022-10-18T18:30:18.457Z,99623.03
2022-10-18T18:32:45.666Z,99622.19
2022-10-18T18:35:13.013Z,99606.91
2022-10-18T18:37:40.274Z,99619.13
2022-10-18T18:40:08.632Z,99607.00
2022-10-18T18:42:36.256Z,99604.03
2022-10-18T18:45:03.857Z,99603.00
2022-10-18T18:47:35.466Z,99598.41
2022-10-18T18:50:02.728Z,99593.81
2022-10-18T18:52:30.235Z,99604.28
2022-10-18T18:54:59.031Z,99591.22
2022-10-18T18:57:26.458Z,99588.38
2022-10-18T18:59:53.615Z,99601.00
2022-10-18T19:02:20.845Z,99599.00
2022-10-18T19:04:50.785Z,99591.03
2022-10-18T19:07:18.378Z,99590.59
2022-10-18T19:09:47.047Z,99581.31
2022-10-18T19:12:16.463Z,99590.78
2022-10-18T19:14:47.078Z,99592.16
2022-10-18T19:17:14.330Z,99584.78
2022-10-18T19:19:42.997Z,99584.16
2022-10-18T19:22:11.701Z,99591.25
2022-10-18T19:24:38.923Z,99590.81
2022-10-18T19:27:12.452Z,99578.50
2022-10-18T19:29:40.937Z,99580.66
2022-10-18T19:32:12.223Z,99577.47
2022-10-18T19:34:40.205Z,99566.59
2022-10-18T19:37:09.489Z,99565.56
2022-10-18T19:39:38.329Z,99572.03
2022-10-18T19:42:08.861Z,99570.03
2022-10-18T19:44:37.097Z,99563.47
2022-10-18T19:47:05.152Z,99567.56
2022-10-18T19:49:32.954Z,99566.50
2022-10-18T19:52:00.200Z,99561.13
2022-10-18T19:54:27.775Z,99565.03
2022-10-18T19:56:56.417Z,99562.38
2022-10-18T19:59:24.105Z,99562.06
2022-10-18T20:01:51.365Z,99564.56
2022-10-18T20:04:18.518Z,99553.66
2022-10-18T20:06:45.977Z,99555.97
2022-10-18T20:09:17.845Z,99557.03
2022-10-18T20:11:50.620Z,99544.94
2022-10-18T20:14:19.260Z,99547.41
2022-10-18T20:16:46.885Z,99540.25
2022-10-18T20:19:13.998Z,99542.03
2022-10-18T20:21:41.271Z,99535.56
2022-10-18T20:24:09.520Z,99538.22
2022-10-18T20:26:37.138Z,99529.13
2022-10-18T20:29:05.004Z,99525.31
2022-10-18T20:31:38.223Z,99526.34
2022-10-18T20:34:07.588Z,99525.28
2022-10-18T20:36:35.363Z,99526.59
2022-10-18T20:39:03.538Z,99537.53
2022-10-18T20:41:32.749Z,99527.03
2022-10-18T20:44:01.801Z,99526.91
2022-10-18T20:46:30.841Z,99522.75
2022-10-18T20:48:59.672Z,99522.13
2022-10-18T20:51:27.113Z,99515.94
2022-10-18T20:53:54.720Z,99517.59
2022-10-18T20:56:23.523Z,99511.41
2022-10-18T20:58:53.783Z,99499.44
2022-10-18T21:01:22.657Z,99504.47
2022-10-18T21:03:51.267Z,99501.81
2022-10-18T21:06:21.373Z,99504.06
2022-10-18T21:08:53.100Z,99499.47
2022-10-18T21:11:20.363Z,99499.63
2022-10-18T21:13:50.907Z,99490.88
2022-10-18T21:16:18.510Z,99486.91
2022-10-18T21:18:45.909Z,99479.13
2022-10-18T21:21:16.007Z,99487.47
2022-10-18T21:23:44.737Z,99475.97
2022-10-18T21:26:15.207Z,99476.16
2022-10-18T21:28:42.790Z,99477.28
2022-10-18T21:31:12.808Z,99477.00
2022-10-18T21:33:40.963Z,99456.69
2022-10-18T21:36:08.765Z,99463.91
2022-10-18T21:38:36.347Z,99459.91
2022-10-18T21:41:08.930Z,99446.34
2022-10-18T21:43:36.382Z,99449.06
2022-10-18T21:46:03.663Z,99439.34
2022-10-18T21:48:30.862Z,99433.16
2022-10-18T21:51:02.958Z,99435.44
2022-10-18T21:53:30.587Z,99422.16
2022-10-18T21:56:04.638Z,99419.66
2022-10-18T21:58:33.968Z,99420.66
2022-10-18T22:01:01.332Z,99425.34
2022-10-18T22:03:28.723Z,99419.75
2022-10-18T22:06:01.767Z,99424.84
2022-10-18T22:08:29.406Z,99411.28
2022-10-18T22:10:57.897Z,99412.25
2022-10-18T22:13:25.779Z,99411.44
2022-10-18T22:15:54.915Z,99404.91
2022-10-18T22:18:22.406Z,99401.09
2022-10-18T22:20:56.747Z,99399.66
2022-10-18T22:23:23.946Z,99406.66
2022-10-18T22:25:51.250Z,99395.84
2022-10-18T22:28:18.418Z,99402.25
2022-10-18T22:30:45.817Z,99394.91
2022-10-18T22:33:14.363Z,99384.22
2022-10-18T22:35:41.825Z,99389.22
2022-10-18T22:38:08.933Z,99392.09
2022-10-18T22:40:36.209Z,99385.25
2022-10-18T22:43:03.487Z,99380.19
2022-10-18T22:45:30.652Z,99382.41
2022-10-18T22:47:58.178Z,99373.66
2022-10-18T22:50:26.745Z,99379.91
2022-10-18T22:52:54.665Z,99368.59
2022-10-18T22:55:22.041Z,99369.06
2022-10-18T22:57:49.302Z,99356.00
2022-10-18T23:00:16.697Z,99359.84
2022-10-18T23:02:44.081Z,99358.25
2022-10-18T23:05:11.383Z,99359.22
2022-10-18T23:07:39.898Z,99358.72
2022-10-18T23:10:07.525Z,99361.94
2022-10-18T23:12:35.031Z,99355.56
2022-10-18T23:15:02.471Z,99353.50
2022-10-18T23:17:29.678Z,99353.97
2022-10-18T23:19:57.186Z,99350.97
2022-10-18T23:22:24.387Z,99341.25
2022-10-18T23:24:52.995Z,99340.75
2022-10-18T23:27:20.275Z,99342.84
2022-10-18T23:29:47.433Z,99328.84
2022-10-18T23:32:14.625Z,99335.38
2022-10-18T23:34:41.949Z,99324.69
2022-10-18T23:37:09.321Z,99332.03
2022-10-18T23:39:36.443Z,99323.28
2022-10-18T23:42:05.074Z,99316.72
2022-10-18T23:44:32.210Z,99317.84
2022-10-18T23:46:59.454Z,99313.22
2022-10-18T23:49:26.703Z,99316.44
2022-10-18T23:51:53.890Z,99308.47
2022-10-18T23:54:21.221Z,99304.66
2022-10-18T23:56:48.452Z,99301.28
2022-10-18T23:59:17.040Z,99295.56
